Time;durP1;ratioP1;P1;durP2;ratioP2;P2;SDS_P1;SDS_P2;PMS_P1;PMS_P2;Temp;Humidity;BMP_temperature;BMP_pressure;BME280_temperature;BME280_humidity;BME280_pressure;Samples;Min_cycle;Max_cycle;Signal;HPM_P1;HPM_P2
2022/01/02 00:01:02;;;;;;;44.03;26.17;;;;;;;;;;5030749;28;20029;-68
2022/01/02 00:03:34;;;;;;;38.88;23.35;;;;;;;;;;5030136;28;20021;-67
2022/01/02 00:06:02;;;;;;;36.80;21.15;;;;;;;;;;5030555;28;20560;-67
2022/01/02 00:08:31;;;;;;;35.40;19.13;;;;;;;;;;5031322;28;20017;-68
2022/01/02 00:10:59;;;;;;;29.77;17.52;;;;;;;;;;5031755;28;20038;-72
2022/01/02 00:13:33;;;;;;;28.67;16.55;;;;;;;;;;5031699;28;20388;-70
2022/01/02 00:16:05;;;;;;;25.52;15.43;;;;;;;;;;5032057;28;20045;-66
2022/01/02 00:18:35;;;;;;;33.05;18.60;;;;;;;;;;5031160;28;20029;-68
2022/01/02 00:21:06;;;;;;;28.88;16.63;;;;;;;;;;5031505;28;20396;-68
2022/01/02 00:23:52;;;;;;;34.00;20.80;;;;;;;;;;5031408;28;20049;-67
2022/01/02 00:26:19;;;;;;;28.02;18.30;;;;;;;;;;5031679;28;20080;-69
2022/01/02 00:28:48;;;;;;;29.35;18.50;;;;;;;;;;5031587;28;20079;-68
2022/01/02 00:31:15;;;;;;;29.83;18.20;;;;;;;;;;5031199;28;20041;-67
2022/01/02 00:33:41;;;;;;;30.77;18.75;;;;;;;;;;5048336;28;20064;-67
2022/01/02 00:36:07;;;;;;;34.67;20.60;;;;;;;;;;5051253;28;20029;-67
2022/01/02 00:38:35;;;;;;;31.70;20.30;;;;;;;;;;5051171;28;20040;-67
2022/01/02 00:41:01;;;;;;;37.45;20.67;;;;;;;;;;5055277;28;20392;-67
2022/01/02 00:43:45;;;;;;;37.40;23.20;;;;;;;;;;5055204;28;20506;-67
2022/01/02 00:46:13;;;;;;;37.90;21.83;;;;;;;;;;5054817;28;20033;-68
2022/01/02 00:48:44;;;;;;;40.05;24.52;;;;;;;;;;5053549;28;20044;-68
2022/01/02 00:51:17;;;;;;;41.40;25.02;;;;;;;;;;5054985;28;20056;-67
2022/01/02 00:53:46;;;;;;;43.17;26.08;;;;;;;;;;5055029;28;20041;-68
2022/01/02 00:56:12;;;;;;;39.10;25.17;;;;;;;;;;5054741;28;20040;-67
2022/01/02 00:58:53;;;;;;;36.70;22.48;;;;;;;;;;5053522;28;20128;-67
2022/01/02 01:01:24;;;;;;;37.97;23.10;;;;;;;;;;5053656;28;20036;-67
2022/01/02 01:03:54;;;;;;;38.83;24.98;;;;;;;;;;5055069;28;20090;-67
2022/01/02 01:06:26;;;;;;;41.03;25.13;;;;;;;;;;5053388;28;20495;-68
2022/01/02 01:08:58;;;;;;;36.22;24.17;;;;;;;;;;5054974;28;20418;-67
2022/01/02 01:11:26;;;;;;;35.50;23.73;;;;;;;;;;5054659;28;20025;-67
2022/01/02 01:13:54;;;;;;;36.75;21.67;;;;;;;;;;5052927;28;20032;-66
2022/01/02 01:16:20;;;;;;;30.10;18.20;;;;;;;;;;5031737;28;20049;-66
2022/01/02 01:18:46;;;;;;;30.25;18.75;;;;;;;;;;5027831;28;20041;-66
2022/01/02 01:21:12;;;;;;;29.83;18.45;;;;;;;;;;5014456;28;20133;-66
2022/01/02 01:23:40;;;;;;;30.00;18.17;;;;;;;;;;5014919;28;20473;-67
2022/01/02 01:26:07;;;;;;;27.20;17.58;;;;;;;;;;5014603;28;20513;-68
2022/01/02 01:28:34;;;;;;;51.95;22.40;;;;;;;;;;5013690;28;20116;-66
2022/01/02 01:31:00;;;;;;;113.40;32.83;;;;;;;;;;5014768;28;20039;-67
2022/01/02 01:33:26;;;;;;;78.07;27.23;;;;;;;;;;5019012;28;20416;-68
2022/01/02 01:35:52;;;;;;;70.75;25.90;;;;;;;;;;5034390;28;20038;-66
2022/01/02 01:38:18;;;;;;;61.55;23.95;;;;;;;;;;5020793;28;20041;-65
2022/01/02 01:41:14;;;;;;;51.78;22.77;;;;;;;;;;5033078;28;20495;-67
2022/01/02 01:43:53;;;;;;;38.63;18.80;;;;;;;;;;5034031;28;20137;-66
2022/01/02 01:46:19;;;;;;;27.33;15.75;;;;;;;;;;5033184;28;20029;-68
2022/01/02 01:48:53;;;;;;;30.15;17.10;;;;;;;;;;5048522;28;20025;-66
2022/01/02 01:51:18;;;;;;;26.08;16.92;;;;;;;;;;5052515;28;20566;-68
2022/01/02 01:53:44;;;;;;;27.60;16.42;;;;;;;;;;5052987;28;20123;-67
2022/01/02 01:56:10;;;;;;;26.67;16.27;;;;;;;;;;5052437;28;20108;-67
2022/01/02 01:58:36;;;;;;;29.67;16.42;;;;;;;;;;5052659;28;20029;-67
2022/01/02 02:01:02;;;;;;;27.75;17.58;;;;;;;;;;5052733;28;20106;-67
2022/01/02 02:03:41;;;;;;;25.75;16.48;;;;;;;;;;5052433;28;20049;-66
2022/01/02 02:06:09;;;;;;;25.48;16.60;;;;;;;;;;5052476;28;20037;-67
2022/01/02 02:08:36;;;;;;;27.90;16.48;;;;;;;;;;5052480;28;20053;-66
2022/01/02 02:11:03;;;;;;;28.48;16.65;;;;;;;;;;5052348;28;20036;-67
2022/01/02 02:13:32;;;;;;;26.38;17.60;;;;;;;;;;5052141;28;20456;-68
2022/01/02 02:16:02;;;;;;;28.05;17.20;;;;;;;;;;5069113;28;20117;-68
2022/01/02 02:18:28;;;;;;;25.58;15.40;;;;;;;;;;5052080;28;20041;-68
2022/01/02 02:20:55;;;;;;;24.63;16.40;;;;;;;;;;5052160;28;20029;-66
2022/01/02 02:23:29;;;;;;;22.80;15.15;;;;;;;;;;5051887;28;20062;-66
2022/01/02 02:25:54;;;;;;;27.52;16.23;;;;;;;;;;5068826;28;20036;-67
2022/01/02 02:28:26;;;;;;;25.67;17.13;;;;;;;;;;5052128;28;20033;-67
2022/01/02 02:30:53;;;;;;;27.48;16.65;;;;;;;;;;5052060;28;20037;-67
2022/01/02 02:33:20;;;;;;;25.13;15.63;;;;;;;;;;5050407;28;20433;-67
2022/01/02 02:35:48;;;;;;;24.17;16.25;;;;;;;;;;5032472;28;20030;-67
2022/01/02 02:38:17;;;;;;;25.15;15.75;;;;;;;;;;5031969;28;20029;-67
2022/01/02 02:40:45;;;;;;;24.88;15.43;;;;;;;;;;5032028;28;20369;-67
2022/01/02 02:51:23;;;;;;;29.85;16.52;;;;;;;;;;5031664;28;20037;-67
2022/01/02 02:53:51;;;;;;;26.00;17.58;;;;;;;;;;5031753;28;20084;-68
2022/01/02 02:56:24;;;;;;;25.73;16.90;;;;;;;;;;5044940;28;20053;-68
2022/01/02 02:58:55;;;;;;;25.92;15.82;;;;;;;;;;5051574;28;20466;-66
2022/01/02 03:01:23;;;;;;;26.35;15.38;;;;;;;;;;5051160;28;20037;-67
2022/01/02 03:03:51;;;;;;;23.08;13.88;;;;;;;;;;5051060;28;20250;-68
2022/01/02 03:06:18;;;;;;;21.80;14.00;;;;;;;;;;5051261;28;20585;-68
2022/01/02 03:08:46;;;;;;;21.98;14.35;;;;;;;;;;5050733;28;20033;-67
2022/01/02 03:11:15;;;;;;;23.02;13.60;;;;;;;;;;5051042;28;20041;-67
2022/01/02 03:13:42;;;;;;;24.10;14.40;;;;;;;;;;5052921;28;20036;-68
2022/01/02 03:16:08;;;;;;;22.58;13.95;;;;;;;;;;5051343;28;20083;-67
2022/01/02 03:18:34;;;;;;;24.20;15.52;;;;;;;;;;5050828;28;20033;-67
2022/01/02 03:21:01;;;;;;;20.67;13.43;;;;;;;;;;5050892;28;20078;-67
2022/01/02 03:23:27;;;;;;;21.52;13.65;;;;;;;;;;5049645;28;20020;-67
2022/01/02 03:25:53;;;;;;;21.88;13.35;;;;;;;;;;5039350;28;20041;-66
2022/01/02 03:28:21;;;;;;;21.75;13.65;;;;;;;;;;5031214;28;20037;-66
2022/01/02 03:30:47;;;;;;;22.63;14.00;;;;;;;;;;5030986;28;20056;-67
2022/01/02 03:33:12;;;;;;;22.38;13.85;;;;;;;;;;5030857;28;20650;-67
2022/01/02 03:35:39;;;;;;;24.17;15.05;;;;;;;;;;5030830;28;20041;-67
2022/01/02 03:38:06;;;;;;;25.75;15.32;;;;;;;;;;5048654;28;21224;-67
2022/01/02 03:40:32;;;;;;;24.15;14.65;;;;;;;;;;5032046;28;20033;-67
2022/01/02 03:42:58;;;;;;;20.52;13.70;;;;;;;;;;5050521;28;20071;-67
2022/01/02 03:45:24;;;;;;;21.50;14.80;;;;;;;;;;5043244;28;20060;-66
2022/01/02 03:47:51;;;;;;;21.17;13.95;;;;;;;;;;5050377;28;20043;-67
2022/01/02 03:50:17;;;;;;;24.40;15.43;;;;;;;;;;5050395;28;20039;-67
2022/01/02 03:52:43;;;;;;;22.50;14.45;;;;;;;;;;5051839;28;20257;-67
2022/01/02 03:55:11;;;;;;;26.20;14.90;;;;;;;;;;5050094;28;20512;-67
2022/01/02 03:57:37;;;;;;;25.98;15.93;;;;;;;;;;5050540;28;20025;-67
2022/01/02 04:00:06;;;;;;;24.38;14.77;;;;;;;;;;5050533;28;20621;-68
2022/01/02 04:02:40;;;;;;;20.45;13.43;;;;;;;;;;5052263;28;20033;-66
2022/01/02 04:05:10;;;;;;;21.23;14.52;;;;;;;;;;5050562;28;20444;-67
2022/01/02 04:07:37;;;;;;;23.98;13.75;;;;;;;;;;5067592;28;20041;-67
2022/01/02 04:10:08;;;;;;;22.23;14.18;;;;;;;;;;5063711;28;20404;-67
2022/01/02 04:12:34;;;;;;;22.27;13.32;;;;;;;;;;5052197;28;20483;-67
2022/01/02 04:15:01;;;;;;;26.33;12.95;;;;;;;;;;5049974;28;20502;-67
2022/01/02 04:17:27;;;;;;;22.10;14.52;;;;;;;;;;5050002;28;20127;-66
2022/01/02 04:19:54;;;;;;;21.50;13.43;;;;;;;;;;5049880;28;20456;-67
2022/01/02 04:22:20;;;;;;;20.95;12.85;;;;;;;;;;5050142;28;20044;-67
2022/01/02 04:24:46;;;;;;;19.88;12.73;;;;;;;;;;5050317;28;20025;-67
2022/01/02 04:27:11;;;;;;;21.38;12.98;;;;;;;;;;5051430;28;20039;-68
2022/01/02 04:29:37;;;;;;;20.58;13.10;;;;;;;;;;5051314;28;20133;-67
2022/01/02 04:32:03;;;;;;;19.45;12.77;;;;;;;;;;5050350;28;20036;-67
2022/01/02 04:34:29;;;;;;;19.08;12.57;;;;;;;;;;5050102;28;20025;-68
2022/01/02 04:36:56;;;;;;;17.83;11.38;;;;;;;;;;5049983;28;20033;-68
2022/01/02 04:39:22;;;;;;;18.13;11.10;;;;;;;;;;5049904;28;20036;-68
2022/01/02 04:41:48;;;;;;;18.73;11.65;;;;;;;;;;5049982;28;20399;-68
2022/01/02 04:44:14;;;;;;;16.08;11.07;;;;;;;;;;5049938;28;20638;-66
2022/01/02 04:46:40;;;;;;;16.58;10.98;;;;;;;;;;5049771;28;20559;-67
2022/01/02 04:49:06;;;;;;;17.00;10.75;;;;;;;;;;5049976;28;20128;-66
2022/01/02 04:51:32;;;;;;;20.48;12.18;;;;;;;;;;5049947;28;20025;-66
2022/01/02 04:53:58;;;;;;;20.85;11.93;;;;;;;;;;5049229;28;20029;-67
2022/01/02 04:56:24;;;;;;;17.50;11.73;;;;;;;;;;5049383;28;20036;-67
2022/01/02 04:58:50;;;;;;;18.80;11.68;;;;;;;;;;5049836;28;20108;-67
2022/01/02 05:01:16;;;;;;;19.88;10.68;;;;;;;;;;5042603;28;20037;-67
2022/01/02 05:03:43;;;;;;;16.70;11.30;;;;;;;;;;5029603;28;20032;-68
2022/01/02 05:06:11;;;;;;;20.80;11.52;;;;;;;;;;5032889;28;20126;-66
2022/01/02 05:08:37;;;;;;;17.90;10.90;;;;;;;;;;5049406;28;20020;-67
2022/01/02 05:11:04;;;;;;;20.48;10.80;;;;;;;;;;5046927;28;20487;-67
2022/01/02 05:13:30;;;;;;;17.75;10.18;;;;;;;;;;5038186;28;20112;-67
2022/01/02 05:15:57;;;;;;;21.80;10.68;;;;;;;;;;5049373;28;20052;-67
2022/01/02 05:18:23;;;;;;;16.58;10.77;;;;;;;;;;5049716;28;20025;-68
2022/01/02 05:20:49;;;;;;;15.65;10.23;;;;;;;;;;5066211;28;20033;-66
2022/01/02 05:23:19;;;;;;;24.17;13.45;;;;;;;;;;5049713;28;20040;-67
2022/01/02 05:25:45;;;;;;;17.75;11.20;;;;;;;;;;5051472;28;20446;-68
2022/01/02 05:28:11;;;;;;;19.92;10.55;;;;;;;;;;5054470;28;20033;-68
2022/01/02 05:30:38;;;;;;;19.13;12.73;;;;;;;;;;5069782;28;20045;-68
2022/01/02 05:33:05;;;;;;;22.73;13.82;;;;;;;;;;5053158;28;20115;-66
2022/01/02 05:35:31;;;;;;;19.73;12.00;;;;;;;;;;5054094;28;20029;-67
2022/01/02 05:37:58;;;;;;;13.77;8.98;;;;;;;;;;5053285;28;20387;-67
2022/01/02 05:40:25;;;;;;;14.05;8.90;;;;;;;;;;5069477;28;20037;-67
2022/01/02 05:42:51;;;;;;;11.98;7.47;;;;;;;;;;5052889;28;20087;-67
2022/01/02 05:45:17;;;;;;;12.52;7.20;;;;;;;;;;5052522;28;20037;-67
2022/01/02 05:47:43;;;;;;;11.75;7.00;;;;;;;;;;5052755;28;20067;-67
2022/01/02 05:50:09;;;;;;;14.07;7.72;;;;;;;;;;5052514;28;20102;-67
2022/01/02 05:52:36;;;;;;;12.18;7.63;;;;;;;;;;5052434;28;20021;-67
2022/01/02 05:55:02;;;;;;;14.35;7.78;;;;;;;;;;5053801;28;20037;-68
2022/01/02 05:57:28;;;;;;;25.50;8.85;;;;;;;;;;5052292;28;20463;-68
2022/01/02 05:59:54;;;;;;;14.75;9.45;;;;;;;;;;5052499;28;20112;-67
2022/01/02 06:02:20;;;;;;;16.90;9.93;;;;;;;;;;5052527;28;20047;-68
2022/01/02 06:04:46;;;;;;;15.40;8.75;;;;;;;;;;5052382;28;20107;-67
2022/01/02 06:07:11;;;;;;;15.60;8.70;;;;;;;;;;5052125;28;20078;-67
2022/01/02 06:09:38;;;;;;;17.85;9.23;;;;;;;;;;5052415;28;20056;-67
2022/01/02 06:12:04;;;;;;;12.90;8.18;;;;;;;;;;5052517;28;20028;-67
2022/01/02 06:14:30;;;;;;;14.48;8.35;;;;;;;;;;5052191;28;20442;-67
2022/01/02 06:16:56;;;;;;;13.48;7.60;;;;;;;;;;5052212;28;20025;-67
2022/01/02 06:19:22;;;;;;;10.55;6.55;;;;;;;;;;5052501;28;20044;-67
2022/01/02 06:21:48;;;;;;;13.50;7.53;;;;;;;;;;5039306;28;20100;-67
2022/01/02 06:24:14;;;;;;;11.43;7.00;;;;;;;;;;5032460;28;20029;-67
2022/01/02 06:26:40;;;;;;;12.18;6.80;;;;;;;;;;5033217;28;20029;-67
2022/01/02 06:29:06;;;;;;;11.02;6.82;;;;;;;;;;5032509;28;20040;-67
2022/01/02 06:31:33;;;;;;;11.30;6.53;;;;;;;;;;5033009;28;20087;-67
2022/01/02 06:34:00;;;;;;;15.65;7.78;;;;;;;;;;5032650;28;20030;-67
2022/01/02 06:36:26;;;;;;;12.65;7.93;;;;;;;;;;5031975;28;20031;-68
2022/01/02 06:38:52;;;;;;;11.20;7.03;;;;;;;;;;5031082;28;20408;-68
2022/01/02 06:41:18;;;;;;;10.00;6.47;;;;;;;;;;5034248;28;20037;-67
2022/01/02 06:43:44;;;;;;;11.63;6.68;;;;;;;;;;5032533;28;20124;-67
2022/01/02 06:46:10;;;;;;;11.63;7.07;;;;;;;;;;5032520;28;20325;-66
2022/01/02 06:48:37;;;;;;;13.00;7.35;;;;;;;;;;5032714;28;20033;-67
2022/01/02 06:51:03;;;;;;;11.25;6.95;;;;;;;;;;5032484;28;20067;-68
2022/01/02 06:53:29;;;;;;;10.82;6.82;;;;;;;;;;5032764;28;20080;-68
2022/01/02 06:55:55;;;;;;;16.77;7.47;;;;;;;;;;5032474;28;20029;-68
2022/01/02 06:58:21;;;;;;;10.80;7.85;;;;;;;;;;5033755;28;20069;-66
2022/01/02 07:00:48;;;;;;;13.20;6.93;;;;;;;;;;5037530;28;20057;-67
2022/01/02 07:03:14;;;;;;;14.60;7.78;;;;;;;;;;5052977;28;20086;-68
2022/01/02 07:05:41;;;;;;;22.33;10.85;;;;;;;;;;5052195;28;20029;-68
2022/01/02 07:08:07;;;;;;;25.95;10.90;;;;;;;;;;5052035;28;20032;-68
2022/01/02 07:10:34;;;;;;;16.25;10.07;;;;;;;;;;5052266;28;20028;-67
2022/01/02 07:13:00;;;;;;;20.25;10.88;;;;;;;;;;5053358;28;20120;-68
2022/01/02 07:15:25;;;;;;;17.77;10.60;;;;;;;;;;5053234;28;20439;-68
2022/01/02 07:17:51;;;;;;;14.65;9.80;;;;;;;;;;5052973;28;20052;-68
2022/01/02 07:20:17;;;;;;;19.42;10.30;;;;;;;;;;5053034;28;20021;-67
2022/01/02 07:22:43;;;;;;;24.88;10.00;;;;;;;;;;5051321;28;20403;-68
2022/01/02 07:25:10;;;;;;;17.05;9.98;;;;;;;;;;5036488;28;20032;-69
2022/01/02 07:27:36;;;;;;;16.40;10.00;;;;;;;;;;5033236;28;20033;-68
2022/01/02 07:30:03;;;;;;;17.08;10.15;;;;;;;;;;5033027;28;20136;-68
2022/01/02 07:32:29;;;;;;;21.67;11.73;;;;;;;;;;5033262;28;20427;-67
2022/01/02 07:34:54;;;;;;;18.23;10.45;;;;;;;;;;5032915;28;20075;-68
2022/01/02 07:37:20;;;;;;;25.70;15.07;;;;;;;;;;5032537;28;20124;-69
2022/01/02 07:39:46;;;;;;;18.63;12.48;;;;;;;;;;5035432;28;20477;-70
2022/01/02 07:42:12;;;;;;;21.13;12.63;;;;;;;;;;5034175;28;20445;-69
2022/01/02 07:44:44;;;;;;;21.95;12.88;;;;;;;;;;5031605;28;20021;-69
2022/01/02 07:47:10;;;;;;;28.60;12.90;;;;;;;;;;5032770;28;20045;-72
2022/01/02 07:49:36;;;;;;;21.08;12.73;;;;;;;;;;5058285;28;20021;-71
2022/01/02 07:52:02;;;;;;;27.80;14.70;;;;;;;;;;5072344;28;20043;-72
2022/01/02 07:54:28;;;;;;;27.13;18.75;;;;;;;;;;5072506;28;20029;-70
2022/01/02 07:56:54;;;;;;;35.83;21.23;;;;;;;;;;5062568;28;20063;-70
2022/01/02 07:59:19;;;;;;;29.55;18.55;;;;;;;;;;5046080;28;20100;-71
2022/01/02 08:01:46;;;;;;;25.30;17.30;;;;;;;;;;5041314;28;20047;-70
2022/01/02 08:04:12;;;;;;;26.05;18.23;;;;;;;;;;5033393;28;20084;-71
2022/01/02 08:06:38;;;;;;;25.48;18.05;;;;;;;;;;5032456;28;20048;-70
2022/01/02 08:09:04;;;;;;;26.85;17.98;;;;;;;;;;5032210;28;20022;-71
2022/01/02 08:11:30;;;;;;;26.75;16.88;;;;;;;;;;5031910;28;20033;-73
2022/01/02 08:13:56;;;;;;;23.50;15.20;;;;;;;;;;5031883;28;20028;-74
2022/01/02 08:16:22;;;;;;;24.60;16.20;;;;;;;;;;5031854;28;20104;-74
2022/01/02 08:18:48;;;;;;;24.58;16.20;;;;;;;;;;5041872;28;20039;-72
2022/01/02 08:21:14;;;;;;;25.23;15.40;;;;;;;;;;5032546;28;20492;-72
2022/01/02 08:23:39;;;;;;;25.10;14.70;;;;;;;;;;5032953;28;20528;-69
2022/01/02 08:26:05;;;;;;;25.52;15.98;;;;;;;;;;5040378;28;20076;-70
2022/01/02 08:28:31;;;;;;;25.05;16.17;;;;;;;;;;5051727;28;20029;-70
2022/01/02 08:30:57;;;;;;;22.75;15.18;;;;;;;;;;5051901;28;20496;-70
2022/01/02 08:33:22;;;;;;;26.33;16.05;;;;;;;;;;5051377;28;20037;-70
2022/01/02 08:35:48;;;;;;;26.92;16.80;;;;;;;;;;5051590;28;20442;-71
2022/01/02 08:38:15;;;;;;;27.42;17.65;;;;;;;;;;5051672;28;20033;-74
2022/01/02 08:40:41;;;;;;;24.92;17.15;;;;;;;;;;5051305;28;20040;-70
2022/01/02 08:43:08;;;;;;;28.38;17.33;;;;;;;;;;5051956;28;20110;-73
2022/01/02 08:45:35;;;;;;;27.25;17.00;;;;;;;;;;5051144;28;20120;-70
2022/01/02 08:48:01;;;;;;;30.08;19.13;;;;;;;;;;5051724;28;20025;-70
2022/01/02 08:50:27;;;;;;;27.23;17.88;;;;;;;;;;5050269;28;20059;-72
2022/01/02 08:52:52;;;;;;;27.90;16.98;;;;;;;;;;5051443;28;20504;-72
2022/01/02 08:55:18;;;;;;;27.75;17.23;;;;;;;;;;5051530;28;20048;-72
2022/01/02 08:57:44;;;;;;;24.17;17.60;;;;;;;;;;5051566;28;20075;-71
2022/01/02 09:00:11;;;;;;;22.83;16.45;;;;;;;;;;5052644;28;20044;-75
2022/01/02 09:02:36;;;;;;;26.00;16.52;;;;;;;;;;5055406;28;20475;-73
2022/01/02 09:05:03;;;;;;;26.30;17.77;;;;;;;;;;5055744;28;20112;-74
2022/01/02 09:07:29;;;;;;;23.38;17.10;;;;;;;;;;5053356;28;20074;-71
2022/01/02 09:09:55;;;;;;;25.25;17.20;;;;;;;;;;5037996;28;20060;-71
2022/01/02 09:12:20;;;;;;;25.38;16.88;;;;;;;;;;5053570;28;20033;-71
2022/01/02 09:14:46;;;;;;;28.95;18.15;;;;;;;;;;5053308;28;20075;-72
2022/01/02 09:17:13;;;;;;;26.13;19.65;;;;;;;;;;5053724;28;20114;-70
2022/01/02 09:19:41;;;;;;;27.58;19.35;;;;;;;;;;5053964;28;20025;-73
2022/01/02 09:22:06;;;;;;;28.27;18.10;;;;;;;;;;5054172;28;20697;-73
2022/01/02 09:24:32;;;;;;;21.73;14.77;;;;;;;;;;5054319;28;20044;-71
2022/01/02 09:26:58;;;;;;;19.05;12.13;;;;;;;;;;5054497;28;20494;-73
2022/01/02 09:29:24;;;;;;;25.33;15.65;;;;;;;;;;5054990;28;20045;-71
2022/01/02 09:31:50;;;;;;;23.95;16.27;;;;;;;;;;5054750;28;20040;-71
2022/01/02 09:34:16;;;;;;;22.30;14.00;;;;;;;;;;5055146;28;20041;-70
2022/01/02 09:36:42;;;;;;;20.27;14.35;;;;;;;;;;5054948;28;20091;-71
2022/01/02 09:39:08;;;;;;;20.90;15.57;;;;;;;;;;5054605;28;20033;-71
2022/01/02 09:41:34;;;;;;;21.05;14.38;;;;;;;;;;5054797;28;20387;-73
2022/01/02 09:44:00;;;;;;;19.45;13.85;;;;;;;;;;5054553;28;20045;-71
2022/01/02 09:46:27;;;;;;;18.45;12.02;;;;;;;;;;5052780;28;20464;-71
2022/01/02 09:48:55;;;;;;;14.30;11.18;;;;;;;;;;5054731;28;20514;-72
2022/01/02 09:51:27;;;;;;;16.80;11.38;;;;;;;;;;5054884;28;20514;-70
2022/01/02 09:53:55;;;;;;;18.65;11.45;;;;;;;;;;5053285;28;20128;-70
2022/01/02 09:56:21;;;;;;;13.10;9.57;;;;;;;;;;5054042;28;20124;-71
2022/01/02 09:58:47;;;;;;;15.10;9.60;;;;;;;;;;5053890;28;20041;-72
2022/01/02 10:01:24;;;;;;;13.43;9.63;;;;;;;;;;5053940;28;20032;-71
2022/01/02 10:03:53;;;;;;;13.23;8.90;;;;;;;;;;5054529;28;20062;-72
2022/01/02 10:06:20;;;;;;;15.50;9.85;;;;;;;;;;5054359;28;20048;-72
2022/01/02 10:08:47;;;;;;;16.67;9.25;;;;;;;;;;5053999;28;20570;-73
2022/01/02 10:11:25;;;;;;;15.80;9.23;;;;;;;;;;5053676;28;20419;-75
2022/01/02 10:13:56;;;;;;;14.50;9.82;;;;;;;;;;5054190;28;20112;-76
2022/01/02 10:16:37;;;;;;;13.02;9.65;;;;;;;;;;5053746;28;20037;-72
2022/01/02 10:19:20;;;;;;;13.55;9.90;;;;;;;;;;5054045;28;20041;-72
2022/01/02 10:22:06;;;;;;;11.93;8.52;;;;;;;;;;5054014;28;20037;-72
2022/01/02 10:24:36;;;;;;;15.52;10.18;;;;;;;;;;5053077;28;20036;-72
2022/01/02 10:27:06;;;;;;;13.10;9.90;;;;;;;;;;5053602;28;20041;-73
2022/01/02 10:29:48;;;;;;;14.13;9.40;;;;;;;;;;5053664;28;20115;-74
2022/01/02 10:32:26;;;;;;;13.80;8.45;;;;;;;;;;5053474;28;20044;-74
2022/01/02 10:35:05;;;;;;;13.77;9.05;;;;;;;;;;5062641;28;20028;-73
2022/01/02 10:37:31;;;;;;;14.80;10.20;;;;;;;;;;5073672;28;20131;-70
2022/01/02 10:39:57;;;;;;;14.30;8.82;;;;;;;;;;5073530;28;20112;-71
2022/01/02 10:42:23;;;;;;;15.20;8.43;;;;;;;;;;5073044;28;20037;-74
2022/01/02 10:44:49;;;;;;;11.50;8.00;;;;;;;;;;5073043;28;20031;-74
2022/01/02 10:47:24;;;;;;;11.50;7.25;;;;;;;;;;5072792;28;20043;-73
2022/01/02 10:50:08;;;;;;;15.27;8.52;;;;;;;;;;5073167;28;20032;-73
2022/01/02 10:52:34;;;;;;;13.00;8.85;;;;;;;;;;5073433;28;20039;-73
2022/01/02 10:55:25;;;;;;;15.70;8.90;;;;;;;;;;5073013;28;20383;-73
2022/01/02 10:57:54;;;;;;;15.25;8.70;;;;;;;;;;5072943;28;20379;-72
2022/01/02 11:00:25;;;;;;;13.32;8.15;;;;;;;;;;5065824;28;20059;-70
2022/01/02 11:02:51;;;;;;;12.45;8.73;;;;;;;;;;5035769;28;20041;-70
2022/01/02 11:05:19;;;;;;;10.98;7.35;;;;;;;;;;5044121;28;20021;-74
2022/01/02 11:07:46;;;;;;;9.52;6.90;;;;;;;;;;5046178;28;20029;-73
2022/01/02 11:10:14;;;;;;;9.73;6.35;;;;;;;;;;5071422;28;20487;-73
2022/01/02 11:12:42;;;;;;;7.78;5.45;;;;;;;;;;5071535;28;20332;-75
2022/01/02 11:15:10;;;;;;;9.02;5.63;;;;;;;;;;5072852;28;20075;-74
2022/01/02 11:17:37;;;;;;;8.57;5.28;;;;;;;;;;5059428;28;20071;-75
2022/01/02 11:20:09;;;;;;;7.95;4.85;;;;;;;;;;5054019;28;20111;-74
2022/01/02 11:23:14;;;;;;;9.02;5.25;;;;;;;;;;5051861;28;20025;-75
2022/01/02 11:25:42;;;;;;;10.02;5.70;;;;;;;;;;5052249;28;20037;-75
2022/01/02 11:28:31;;;;;;;13.13;6.07;;;;;;;;;;5050165;28;20510;-75
2022/01/02 11:30:57;;;;;;;6.13;4.97;;;;;;;;;;5052339;28;20045;-75
2022/01/02 11:33:49;;;;;;;9.32;5.40;;;;;;;;;;5048138;28;20518;-72
2022/01/02 11:36:35;;;;;;;10.50;6.07;;;;;;;;;;5044329;28;20484;-72
2022/01/02 11:39:09;;;;;;;11.02;5.72;;;;;;;;;;5052342;28;20033;-74
2022/01/02 11:41:48;;;;;;;11.90;7.13;;;;;;;;;;5051208;28;20104;-72
2022/01/02 11:44:15;;;;;;;8.57;5.35;;;;;;;;;;5031897;28;20040;-72
2022/01/02 11:46:47;;;;;;;10.15;6.28;;;;;;;;;;5031694;28;20025;-73
2022/01/02 11:49:38;;;;;;;8.27;5.80;;;;;;;;;;5045382;28;20029;-74
2022/01/02 11:52:09;;;;;;;12.80;6.43;;;;;;;;;;5046904;28;20056;-72
2022/01/02 11:54:47;;;;;;;10.02;5.55;;;;;;;;;;5042689;28;20040;-73
2022/01/02 11:57:18;;;;;;;6.68;4.90;;;;;;;;;;5044667;28;20090;-73
2022/01/02 11:59:44;;;;;;;6.30;4.82;;;;;;;;;;5056374;28;20475;-71
2022/01/02 12:02:13;;;;;;;8.20;5.30;;;;;;;;;;5072001;28;20102;-72
2022/01/02 12:07:36;;;;;;;10.18;5.63;;;;;;;;;;5056377;28;20037;-73
2022/01/02 12:10:13;;;;;;;8.20;5.20;;;;;;;;;;5050853;28;20040;-73
2022/01/02 12:12:58;;;;;;;7.35;5.45;;;;;;;;;;5051164;28;20061;-71
2022/01/02 12:15:32;;;;;;;7.72;5.72;;;;;;;;;;5050280;28;20474;-73
2022/01/02 12:18:06;;;;;;;7.38;5.38;;;;;;;;;;5051272;28;20044;-74
2022/01/02 12:20:50;;;;;;;7.50;5.22;;;;;;;;;;5051076;28;20025;-72
2022/01/02 12:23:34;;;;;;;9.90;6.10;;;;;;;;;;5049277;28;20048;-72
2022/01/02 12:26:16;;;;;;;11.27;6.53;;;;;;;;;;5050825;28;20083;-70
2022/01/02 12:28:43;;;;;;;11.63;7.18;;;;;;;;;;5034299;28;20041;-74
2022/01/02 12:31:12;;;;;;;8.90;6.13;;;;;;;;;;5039010;28;20397;-72
2022/01/02 12:33:39;;;;;;;12.48;8.30;;;;;;;;;;5031470;28;20060;-72
2022/01/02 12:36:21;;;;;;;10.30;7.65;;;;;;;;;;5041555;28;20094;-74
2022/01/02 12:38:51;;;;;;;12.40;8.40;;;;;;;;;;5053830;28;20041;-75
2022/01/02 12:41:21;;;;;;;14.05;8.10;;;;;;;;;;5055404;28;20041;-72
2022/01/02 12:43:54;;;;;;;9.50;6.18;;;;;;;;;;5039024;28;20036;-73
2022/01/02 12:46:40;;;;;;;10.73;6.45;;;;;;;;;;5036706;28;20037;-72
2022/01/02 12:49:13;;;;;;;11.13;6.80;;;;;;;;;;5037848;28;20484;-70
2022/01/02 12:51:43;;;;;;;11.43;6.43;;;;;;;;;;5035838;28;20127;-72
2022/01/02 12:54:11;;;;;;;7.68;5.30;;;;;;;;;;5046889;28;20037;-72
2022/01/02 12:56:46;;;;;;;11.45;7.60;;;;;;;;;;5035382;28;20045;-70
2022/01/02 12:59:21;;;;;;;8.00;5.60;;;;;;;;;;5038348;28;20099;-71
2022/01/02 13:01:52;;;;;;;8.23;5.35;;;;;;;;;;5040140;28;20119;-72
2022/01/02 13:04:21;;;;;;;9.18;5.68;;;;;;;;;;5034799;28;20043;-72
2022/01/02 13:06:47;;;;;;;7.55;5.57;;;;;;;;;;5035002;28;20025;-73
2022/01/02 13:09:33;;;;;;;11.52;5.88;;;;;;;;;;5034181;28;20028;-71
2022/01/02 13:12:00;;;;;;;8.75;5.63;;;;;;;;;;5035535;28;20042;-72
2022/01/02 13:14:44;;;;;;;9.48;6.10;;;;;;;;;;5035386;28;20463;-73
2022/01/02 13:17:15;;;;;;;8.32;5.60;;;;;;;;;;5033933;28;20033;-71
2022/01/02 13:19:44;;;;;;;10.07;6.53;;;;;;;;;;5034672;28;20500;-73
2022/01/02 13:22:17;;;;;;;10.40;5.63;;;;;;;;;;5034574;28;20515;-76
2022/01/02 13:24:45;;;;;;;8.40;5.80;;;;;;;;;;5033893;28;20037;-73
2022/01/02 13:27:11;;;;;;;9.50;5.70;;;;;;;;;;5033318;28;20025;-73
2022/01/02 13:29:37;;;;;;;9.30;6.40;;;;;;;;;;5034564;28;20440;-71
2022/01/02 13:32:18;;;;;;;11.23;6.80;;;;;;;;;;5033983;28;20053;-73
2022/01/02 13:34:56;;;;;;;9.65;6.25;;;;;;;;;;5033877;28;20113;-71
2022/01/02 13:37:36;;;;;;;10.25;6.25;;;;;;;;;;5033671;28;20137;-73
2022/01/02 13:40:24;;;;;;;8.82;5.88;;;;;;;;;;5048926;28;20054;-73
2022/01/02 13:42:51;;;;;;;9.93;5.82;;;;;;;;;;5073784;28;20037;-73
2022/01/02 13:45:22;;;;;;;7.90;5.43;;;;;;;;;;5073548;28;20104;-76
2022/01/02 13:47:51;;;;;;;10.20;5.68;;;;;;;;;;5072865;28;20403;-74
2022/01/02 13:50:31;;;;;;;6.88;5.07;;;;;;;;;;5073441;28;20024;-76
2022/01/02 13:53:18;;;;;;;9.35;5.95;;;;;;;;;;5073866;28;20042;-74
2022/01/02 13:55:47;;;;;;;8.38;5.82;;;;;;;;;;5072888;28;20028;-74
2022/01/02 13:58:27;;;;;;;8.95;5.97;;;;;;;;;;5073131;28;20426;-73
2022/01/02 14:00:55;;;;;;;8.20;5.70;;;;;;;;;;5058011;28;20029;-72
2022/01/02 14:03:27;;;;;;;8.07;5.53;;;;;;;;;;5052116;28;20163;-73
2022/01/02 14:05:53;;;;;;;8.25;5.82;;;;;;;;;;5052291;28;20029;-74
2022/01/02 14:08:20;;;;;;;10.45;6.03;;;;;;;;;;5052205;28;20035;-75
2022/01/02 14:10:46;;;;;;;8.95;5.25;;;;;;;;;;5051624;28;20051;-74
2022/01/02 14:13:14;;;;;;;15.43;9.77;;;;;;;;;;5051822;28;20553;-73
2022/01/02 14:15:58;;;;;;;10.60;7.20;;;;;;;;;;5066715;28;20040;-71
2022/01/02 14:18:28;;;;;;;8.80;5.95;;;;;;;;;;5051706;28;20047;-72
2022/01/02 14:21:00;;;;;;;10.75;6.43;;;;;;;;;;5051095;28;20116;-70
2022/01/02 14:23:30;;;;;;;11.75;7.05;;;;;;;;;;5050650;28;20423;-72
2022/01/02 14:25:57;;;;;;;14.32;7.22;;;;;;;;;;5051528;28;20060;-73
2022/01/02 14:28:24;;;;;;;15.68;7.97;;;;;;;;;;5051972;28;20021;-72
2022/01/02 14:30:51;;;;;;;11.35;6.97;;;;;;;;;;5005546;28;1339813;-72
2022/01/02 14:33:17;;;;;;;11.05;7.40;;;;;;;;;;5052901;28;20037;-73
2022/01/02 14:35:44;;;;;;;12.20;6.35;;;;;;;;;;5052824;28;20139;-73
2022/01/02 14:38:09;;;;;;;13.00;6.82;;;;;;;;;;5052656;28;20041;-74
2022/01/02 14:40:35;;;;;;;11.02;7.35;;;;;;;;;;5052897;28;20043;-74
2022/01/02 14:43:01;;;;;;;14.57;8.20;;;;;;;;;;5053053;28;20056;-73
2022/01/02 14:45:27;;;;;;;18.15;9.80;;;;;;;;;;5052860;28;20044;-72